createdAt,value
2023-02-12T00:01:28.938Z,19.42
2023-02-12T00:03:56.073Z,18.13
2023-02-12T00:06:23.060Z,17.92
2023-02-12T00:08:53.998Z,21.23
2023-02-12T00:11:27.517Z,19.77
2023-02-12T00:13:58.050Z,20.30
2023-02-12T00:16:27.788Z,20.65
2023-02-12T00:18:56.649Z,23.90
2023-02-12T00:21:28.712Z,20.70
2023-02-12T00:23:55.644Z,20.70
2023-02-12T00:26:25.523Z,17.98
2023-02-12T00:28:53.048Z,20.45
2023-02-12T00:31:28.575Z,20.27
2023-02-12T00:33:59.581Z,15.63
2023-02-12T00:36:30.413Z,21.55
2023-02-12T00:38:57.733Z,20.85
2023-02-12T00:41:25.386Z,20.88
2023-02-12T00:43:52.393Z,21.33
2023-02-12T00:46:19.179Z,19.05
2023-02-12T00:48:46.050Z,18.88
2023-02-12T00:51:13.529Z,19.10
2023-02-12T00:53:42.896Z,20.20
2023-02-12T00:56:09.800Z,18.85
2023-02-12T00:58:36.604Z,20.77
2023-02-12T01:01:07.181Z,19.85
2023-02-12T01:03:40.074Z,21.60
2023-02-12T01:06:11.913Z,24.25
2023-02-12T01:08:39.722Z,19.45
2023-02-12T01:11:06.938Z,19.58
2023-02-12T01:13:36.995Z,20.77
2023-02-12T01:16:11.031Z,19.08
2023-02-12T01:18:40.961Z,19.50
2023-02-12T01:21:16.417Z,17.45
2023-02-12T01:23:46.757Z,18.27
2023-02-12T01:26:16.899Z,20.67
2023-02-12T01:28:49.343Z,19.70
2023-02-12T01:31:19.004Z,21.13
2023-02-12T01:33:50.588Z,19.50
2023-02-12T01:36:17.451Z,18.90
2023-02-12T01:38:50.466Z,20.45
2023-02-12T01:41:23.196Z,19.63
2023-02-12T01:44:11.740Z,20.25
2023-02-12T01:46:39.354Z,21.00
2023-02-12T01:49:17.608Z,22.40
2023-02-12T01:51:46.143Z,18.95
2023-02-12T01:54:19.650Z,19.50
2023-02-12T01:56:51.273Z,18.38
2023-02-12T01:59:19.618Z,17.50
2023-02-12T02:01:46.380Z,18.05
2023-02-12T02:04:16.622Z,21.13
2023-02-12T02:06:57.762Z,18.92
2023-02-12T02:09:24.876Z,19.60
2023-02-12T02:12:13.529Z,20.77
2023-02-12T02:14:41.323Z,19.25
2023-02-12T02:17:47.402Z,18.23
2023-02-12T02:20:33.206Z,18.52
2023-02-12T02:23:25.675Z,19.98
2023-02-12T02:26:13.588Z,18.27
2023-02-12T02:29:05.414Z,17.10
2023-02-12T02:31:38.240Z,18.25
2023-02-12T02:34:32.972Z,19.13
2023-02-12T02:37:20.550Z,17.85
2023-02-12T02:40:00.588Z,20.25
2023-02-12T02:42:35.212Z,19.23
2023-02-12T02:45:16.850Z,18.38
2023-02-12T02:47:51.516Z,21.20
2023-02-12T02:50:23.593Z,19.48
2023-02-12T02:53:04.128Z,19.92
2023-02-12T02:55:38.917Z,21.77
2023-02-12T02:58:15.302Z,19.33
2023-02-12T03:00:51.025Z,18.98
2023-02-12T03:03:34.542Z,18.13
2023-02-12T03:06:11.501Z,20.13
2023-02-12T03:08:42.676Z,19.42
2023-02-12T03:11:33.226Z,17.77
2023-02-12T03:14:17.980Z,17.92
2023-02-12T03:17:00.694Z,18.48
2023-02-12T03:19:30.453Z,17.98
2023-02-12T03:22:06.940Z,17.73
2023-02-12T03:24:39.895Z,17.27
2023-02-12T03:27:16.200Z,15.77
2023-02-12T03:29:43.006Z,17.17
2023-02-12T03:32:36.484Z,16.95
2023-02-12T03:35:13.296Z,17.60
2023-02-12T03:37:55.749Z,18.58
2023-02-12T03:40:29.462Z,16.67
2023-02-12T03:43:09.035Z,19.75
2023-02-12T03:45:59.695Z,20.27
2023-02-12T03:48:38.828Z,18.05
2023-02-12T03:51:21.281Z,16.80
2023-02-12T03:53:50.550Z,17.77
2023-02-12T03:56:25.717Z,19.02
2023-02-12T03:58:55.226Z,17.60
2023-02-12T04:03:51.030Z,16.65
2023-02-12T04:06:25.828Z,16.60
2023-02-12T04:08:53.517Z,16.48
2023-02-12T04:11:42.238Z,17.05
2023-02-12T04:14:52.507Z,18.10
2023-02-12T04:17:33.555Z,16.33
2023-02-12T04:20:21.735Z,16.42
2023-02-12T04:23:13.146Z,18.35
2023-02-12T04:25:42.372Z,17.25
2023-02-12T04:28:26.363Z,15.07
2023-02-12T04:31:34.675Z,17.33
2023-02-12T04:34:13.583Z,18.52
2023-02-12T04:36:51.573Z,17.52
2023-02-12T04:39:26.567Z,17.52
2023-02-12T04:41:53.322Z,14.75
2023-02-12T04:44:30.036Z,17.77
2023-02-12T04:46:57.285Z,16.75
2023-02-12T04:49:27.088Z,17.73
2023-02-12T04:52:01.349Z,16.08
2023-02-12T04:54:28.180Z,15.95
2023-02-12T04:56:55.053Z,16.48
2023-02-12T04:59:21.875Z,15.45
2023-02-12T05:01:48.857Z,18.08
2023-02-12T05:04:19.121Z,15.93
2023-02-12T05:06:48.586Z,18.30
2023-02-12T05:11:46.811Z,17.02
2023-02-12T05:14:14.075Z,15.43
2023-02-12T05:16:43.344Z,16.33
2023-02-12T05:19:10.167Z,16.30
2023-02-12T05:21:38.445Z,15.63
2023-02-12T05:24:08.316Z,13.77
2023-02-12T05:26:37.766Z,16.15
2023-02-12T05:29:06.707Z,15.65
2023-02-12T05:31:34.399Z,16.20
2023-02-12T05:34:03.751Z,14.55
2023-02-12T05:36:34.940Z,15.18
2023-02-12T05:39:05.678Z,15.73
2023-02-12T05:41:35.724Z,14.05
2023-02-12T05:44:04.997Z,16.58
2023-02-12T05:46:32.109Z,15.15
2023-02-12T05:49:01.177Z,16.27
2023-02-12T05:51:32.165Z,14.00
2023-02-12T05:54:03.698Z,14.73
2023-02-12T05:56:39.962Z,15.85
2023-02-12T05:59:14.205Z,13.80
2023-02-12T06:01:44.873Z,14.82
2023-02-12T06:04:18.983Z,15.50
2023-02-12T06:06:46.387Z,14.48
2023-02-12T06:09:16.006Z,15.95
2023-02-12T06:11:43.215Z,15.20
2023-02-12T06:16:50.820Z,15.77
2023-02-12T06:19:18.990Z,15.63
2023-02-12T06:21:53.489Z,17.45
2023-02-12T06:24:23.573Z,14.23
2023-02-12T06:26:53.679Z,14.32
2023-02-12T06:29:23.829Z,14.63
2023-02-12T06:31:50.658Z,15.00
2023-02-12T06:34:18.592Z,14.27
2023-02-12T06:36:49.281Z,15.68
2023-02-12T06:39:21.287Z,14.93
2023-02-12T06:41:52.980Z,16.40
2023-02-12T06:44:20.034Z,14.43
2023-02-12T06:46:49.522Z,15.63
2023-02-12T06:51:48.379Z,14.65
2023-02-12T06:54:16.355Z,20.02
2023-02-12T06:56:48.866Z,14.35
2023-02-12T06:59:21.588Z,14.70
2023-02-12T07:01:50.890Z,17.90
2023-02-12T07:04:17.851Z,17.17
2023-02-12T07:06:44.602Z,15.82
2023-02-12T07:09:11.418Z,14.07
2023-02-12T07:11:43.332Z,13.38
2023-02-12T07:16:41.462Z,13.88
2023-02-12T07:19:13.838Z,16.05
2023-02-12T07:21:41.183Z,13.75
2023-02-12T07:24:13.679Z,12.55
2023-02-12T07:26:41.847Z,13.07
2023-02-12T07:29:10.988Z,13.15
2023-02-12T07:31:44.106Z,13.73
2023-02-12T07:34:14.169Z,14.65
2023-02-12T07:36:43.456Z,14.13
2023-02-12T07:39:13.269Z,13.32
2023-02-12T07:41:42.811Z,16.35
2023-02-12T07:44:12.453Z,14.88
2023-02-12T07:46:48.484Z,15.05
2023-02-12T07:49:21.692Z,13.60
2023-02-12T07:51:56.870Z,14.02
2023-02-12T07:54:26.471Z,16.63
2023-02-12T07:56:55.426Z,12.18
2023-02-12T07:59:24.520Z,12.88
2023-02-12T08:01:55.043Z,11.75
2023-02-12T08:04:25.860Z,12.98
2023-02-12T08:06:54.873Z,13.05
2023-02-12T08:09:26.381Z,13.98
2023-02-12T08:11:55.806Z,12.30
2023-02-12T08:16:52.401Z,11.05
2023-02-12T08:19:23.307Z,10.98
2023-02-12T08:21:56.700Z,12.63
2023-02-12T08:24:24.220Z,10.30
2023-02-12T08:26:58.072Z,14.25
2023-02-12T08:29:32.785Z,11.70
2023-02-12T08:32:07.299Z,14.13
2023-02-12T08:34:37.520Z,10.75
2023-02-12T08:37:05.894Z,10.57
2023-02-12T08:39:35.099Z,11.30
2023-02-12T08:42:08.973Z,9.82
2023-02-12T08:44:38.050Z,9.75
2023-02-12T08:47:10.213Z,9.55
2023-02-12T08:49:40.449Z,9.88
2023-02-12T08:52:09.591Z,8.95
2023-02-12T08:54:40.610Z,8.77
2023-02-12T08:57:08.096Z,10.32
2023-02-12T08:59:34.968Z,10.80
2023-02-12T09:02:04.319Z,10.85
2023-02-12T09:07:00.992Z,9.40
2023-02-12T09:09:33.227Z,7.90
2023-02-12T09:11:59.997Z,8.95
2023-02-12T09:14:29.172Z,8.65
2023-02-12T09:16:57.362Z,10.55
2023-02-12T09:19:26.591Z,9.63
2023-02-12T09:21:56.042Z,8.00
2023-02-12T09:24:24.110Z,8.75
2023-02-12T09:26:50.863Z,8.18
2023-02-12T09:29:20.104Z,7.10
2023-02-12T09:31:49.471Z,9.50
2023-02-12T09:36:47.611Z,8.13
2023-02-12T09:39:14.416Z,5.40
2023-02-12T09:41:56.486Z,4.80
2023-02-12T09:44:27.280Z,5.68
2023-02-12T09:47:02.459Z,5.25
2023-02-12T09:49:43.556Z,5.63
2023-02-12T09:52:18.124Z,4.82
2023-02-12T09:54:48.200Z,4.68
2023-02-12T09:57:36.306Z,4.72
2023-02-12T10:00:11.065Z,6.10
2023-02-12T10:02:41.743Z,6.65
2023-02-12T10:05:25.875Z,7.55
2023-02-12T10:08:20.629Z,5.35
2023-02-12T10:11:02.110Z,11.32
2023-02-12T10:14:01.658Z,4.13
2023-02-12T10:16:38.524Z,6.90
2023-02-12T10:19:24.092Z,4.18
2023-02-12T10:22:13.789Z,5.72
2023-02-12T10:25:25.271Z,5.38
2023-02-12T10:27:59.557Z,9.25
2023-02-12T10:30:46.543Z,6.43
2023-02-12T10:33:17.628Z,5.03
2023-02-12T10:35:56.949Z,4.78
2023-02-12T10:38:33.073Z,5.60
2023-02-12T10:41:02.052Z,4.30
2023-02-12T10:43:29.363Z,3.75
2023-02-12T10:45:56.567Z,5.10
2023-02-12T10:48:27.617Z,4.53
2023-02-12T10:51:12.959Z,4.28
2023-02-12T10:53:45.391Z,3.78
2023-02-12T10:56:20.135Z,3.80
2023-02-12T10:58:50.259Z,4.47
2023-02-12T11:01:28.277Z,5.15
2023-02-12T11:03:59.292Z,3.33
2023-02-12T11:06:29.982Z,4.65
2023-02-12T11:08:58.225Z,3.13
2023-02-12T11:11:32.238Z,2.08
2023-02-12T11:14:06.372Z,4.35
2023-02-12T11:16:35.945Z,2.75
2023-02-12T11:19:08.094Z,2.80
2023-02-12T11:21:36.502Z,5.07
2023-02-12T11:24:31.614Z,4.47
2023-02-12T11:27:19.092Z,4.80
2023-02-12T11:29:49.849Z,4.18
2023-02-12T11:32:19.401Z,3.35
2023-02-12T11:35:18.782Z,5.60
2023-02-12T11:37:47.777Z,5.03
2023-02-12T11:40:22.114Z,6.68
2023-02-12T11:42:57.515Z,5.78
2023-02-12T11:45:32.819Z,5.38
2023-02-12T11:47:59.879Z,4.72
2023-02-12T11:50:34.336Z,5.22
2023-02-12T11:53:10.628Z,5.05
2023-02-12T11:55:40.468Z,3.63
2023-02-12T11:58:16.391Z,4.45
2023-02-12T12:01:05.011Z,3.88
2023-02-12T12:04:03.940Z,3.97
2023-02-12T12:06:41.544Z,4.82
2023-02-12T12:09:26.926Z,4.22
2023-02-12T12:12:05.309Z,2.22
2023-02-12T12:15:02.777Z,3.20
2023-02-12T12:17:57.109Z,3.00
2023-02-12T12:20:26.125Z,3.47
2023-02-12T12:23:00.813Z,2.75
2023-02-12T12:25:43.405Z,2.15
2023-02-12T12:28:30.894Z,4.10
2023-02-12T12:31:10.896Z,4.88
2023-02-12T12:33:57.584Z,4.68
2023-02-12T12:36:58.778Z,3.35
2023-02-12T12:39:56.840Z,3.03
2023-02-12T12:42:48.024Z,3.15
2023-02-12T12:45:48.847Z,4.22
2023-02-12T12:48:34.130Z,4.50
2023-02-12T12:51:27.546Z,3.17
2023-02-12T12:54:15.867Z,2.20
2023-02-12T12:56:56.310Z,3.23
2023-02-12T12:59:42.198Z,4.10
2023-02-12T13:02:52.234Z,3.45
2023-02-12T13:05:56.960Z,3.83
2023-02-12T13:08:54.450Z,3.17
2023-02-12T13:11:32.405Z,3.75
2023-02-12T13:14:33.933Z,4.10
2023-02-12T13:17:23.876Z,6.25
2023-02-12T13:20:06.055Z,15.27
2023-02-12T13:22:43.437Z,29.77
2023-02-12T13:25:19.636Z,29.58
2023-02-12T13:27:48.512Z,32.83
2023-02-12T13:30:15.989Z,31.95
2023-02-12T13:32:48.652Z,32.03
2023-02-12T13:35:24.159Z,35.30
2023-02-12T13:37:56.173Z,33.75
2023-02-12T13:40:28.554Z,33.65
2023-02-12T13:42:58.327Z,36.85
2023-02-12T13:45:36.766Z,36.88
2023-02-12T13:48:40.986Z,38.78
2023-02-12T13:51:13.750Z,37.88
2023-02-12T13:54:05.413Z,35.47
2023-02-12T13:56:50.257Z,35.65
2023-02-12T13:59:32.457Z,33.83
2023-02-12T14:01:59.816Z,31.88
2023-02-12T14:04:37.720Z,35.83
2023-02-12T14:07:11.014Z,35.92
2023-02-12T14:10:07.349Z,38.50
2023-02-12T14:12:43.051Z,34.75
2023-02-12T14:15:18.473Z,34.13
2023-02-12T14:17:55.500Z,31.63
2023-02-12T14:20:31.328Z,32.92
2023-02-12T14:23:22.084Z,31.17
2023-02-12T14:25:58.594Z,32.20
2023-02-12T14:28:48.786Z,27.95
2023-02-12T14:31:19.286Z,31.15
2023-02-12T14:33:51.088Z,28.92
2023-02-12T14:36:33.234Z,30.35
2023-02-12T14:39:27.923Z,29.60
2023-02-12T14:42:14.891Z,27.77
2023-02-12T14:44:56.382Z,28.77
2023-02-12T14:47:29.574Z,29.30
2023-02-12T14:50:05.071Z,29.50
2023-02-12T14:52:44.899Z,30.13
2023-02-12T14:55:21.840Z,29.33
2023-02-12T14:57:49.386Z,31.83
2023-02-12T15:00:29.556Z,28.65
2023-02-12T15:03:07.875Z,32.13
2023-02-12T15:06:00.299Z,32.83
2023-02-12T15:08:36.071Z,33.50
2023-02-12T15:11:02.785Z,33.33
2023-02-12T15:13:59.629Z,32.50
2023-02-12T15:16:44.862Z,33.03
2023-02-12T15:19:43.105Z,33.05
2023-02-12T15:22:33.157Z,29.75
2023-02-12T15:25:41.882Z,29.73
2023-02-12T15:28:21.580Z,33.20
2023-02-12T15:30:51.434Z,30.10
2023-02-12T15:33:27.261Z,34.42
2023-02-12T15:36:00.068Z,29.85
2023-02-12T15:38:36.016Z,31.33
2023-02-12T15:41:04.243Z,31.10
2023-02-12T15:43:36.008Z,31.10
2023-02-12T15:46:06.757Z,27.30
2023-02-12T15:48:36.100Z,27.88
2023-02-12T15:51:08.292Z,25.70
2023-02-12T15:53:35.702Z,27.10
2023-02-12T15:56:03.837Z,27.60
2023-02-12T15:58:52.436Z,26.83
2023-02-12T16:01:23.696Z,31.17
2023-02-12T16:03:58.402Z,28.00
2023-02-12T16:06:27.341Z,27.95
2023-02-12T16:09:18.373Z,25.25
2023-02-12T16:11:46.794Z,27.33
2023-02-12T16:14:29.299Z,28.63
2023-02-12T16:16:57.313Z,28.92
2023-02-12T16:19:37.094Z,28.90
2023-02-12T16:22:14.483Z,24.70
2023-02-12T16:24:51.537Z,27.42
2023-02-12T16:27:22.945Z,27.25
2023-02-12T16:30:02.625Z,28.05
2023-02-12T16:32:42.926Z,24.95
2023-02-12T16:35:12.211Z,27.98
2023-02-12T16:37:38.917Z,29.90
2023-02-12T16:40:15.613Z,29.00
2023-02-12T16:42:49.228Z,32.30
2023-02-12T16:45:35.046Z,27.85
2023-02-12T16:48:24.558Z,29.30
2023-02-12T16:51:03.065Z,33.92
2023-02-12T16:53:35.470Z,30.23
2023-02-12T16:56:05.690Z,33.70
2023-02-12T16:58:32.570Z,32.15
2023-02-12T17:01:02.535Z,29.30
2023-02-12T17:03:31.911Z,32.00
2023-02-12T17:05:58.906Z,35.08
2023-02-12T17:08:26.157Z,37.25
2023-02-12T17:10:55.727Z,36.95
2023-02-12T17:13:22.638Z,38.80
2023-02-12T17:16:01.771Z,38.42
2023-02-12T17:18:33.242Z,37.38
2023-02-12T17:21:26.998Z,36.47
2023-02-12T17:23:56.237Z,38.92
2023-02-12T17:26:24.087Z,35.42
2023-02-12T17:28:50.876Z,40.17
2023-02-12T17:31:24.171Z,36.22
2023-02-12T17:33:53.610Z,41.38
2023-02-12T17:36:20.474Z,38.17
2023-02-12T17:38:47.249Z,35.83
2023-02-12T17:41:14.639Z,37.28
2023-02-12T17:43:43.982Z,37.53
2023-02-12T17:46:22.283Z,36.33
2023-02-12T17:48:49.058Z,34.67
2023-02-12T17:51:16.212Z,33.70
2023-02-12T17:53:54.302Z,34.65
2023-02-12T17:56:25.812Z,40.53
2023-02-12T17:58:54.676Z,34.78
2023-02-12T18:01:23.831Z,33.65
2023-02-12T18:03:55.915Z,31.52
2023-02-12T18:06:25.043Z,31.38
2023-02-12T18:08:52.441Z,30.88
2023-02-12T18:11:21.404Z,31.60
2023-02-12T18:13:55.905Z,32.08
2023-02-12T18:16:25.324Z,29.08
2023-02-12T18:18:52.711Z,26.02
2023-02-12T18:21:21.870Z,30.10
2023-02-12T18:23:52.818Z,29.30
2023-02-12T18:26:23.033Z,29.50
2023-02-12T18:28:50.347Z,28.05
2023-02-12T18:31:23.259Z,30.00
2023-02-12T18:33:52.509Z,29.48
2023-02-12T18:36:21.004Z,29.13
2023-02-12T18:38:51.895Z,26.88
2023-02-12T18:41:20.348Z,22.55
2023-02-12T18:43:49.566Z,26.83
2023-02-12T18:46:21.475Z,19.90
2023-02-12T18:48:51.203Z,26.50
2023-02-12T18:53:46.471Z,33.78
2023-02-12T18:56:13.557Z,29.02
2023-02-12T18:58:43.039Z,19.63
2023-02-12T19:01:14.869Z,19.90
2023-02-12T19:03:47.268Z,27.05
2023-02-12T19:06:18.907Z,17.90
2023-02-12T19:08:48.567Z,24.20
2023-02-12T19:11:17.461Z,28.20
2023-02-12T19:13:48.165Z,30.92
2023-02-12T19:16:16.510Z,34.78
2023-02-12T19:18:50.716Z,30.23
2023-02-12T19:21:17.954Z,32.58
2023-02-12T19:23:45.201Z,31.02
2023-02-12T19:26:17.717Z,29.27
2023-02-12T19:28:46.878Z,35.08
2023-02-12T19:31:22.364Z,34.85
2023-02-12T19:33:50.174Z,35.13
2023-02-12T19:36:19.803Z,31.50
2023-02-12T19:38:47.563Z,36.95
2023-02-12T19:41:20.033Z,32.85
2023-02-12T19:43:47.685Z,36.30
2023-02-12T19:46:17.336Z,39.28
2023-02-12T19:48:49.156Z,34.90
2023-02-12T19:51:22.178Z,37.35
2023-02-12T19:53:49.098Z,36.67
2023-02-12T19:56:16.470Z,35.25
2023-02-12T19:58:46.260Z,36.97
2023-02-12T20:01:20.502Z,37.10
2023-02-12T20:03:48.698Z,31.80
2023-02-12T20:06:24.909Z,30.23
2023-02-12T20:08:55.018Z,35.53
2023-02-12T20:11:24.973Z,42.35
2023-02-12T20:13:52.218Z,36.95
2023-02-12T20:16:21.137Z,42.30
2023-02-12T20:18:53.002Z,38.28
2023-02-12T20:21:29.479Z,45.45
2023-02-12T20:24:02.413Z,49.53
2023-02-12T20:26:30.714Z,52.97
2023-02-12T20:29:00.370Z,52.47
2023-02-12T20:31:31.081Z,53.80
2023-02-12T20:34:03.408Z,53.92
2023-02-12T20:36:33.206Z,58.33
2023-02-12T20:39:00.237Z,57.83
2023-02-12T20:41:35.148Z,53.33
2023-02-12T20:44:02.369Z,55.08
2023-02-12T20:46:32.691Z,51.67
2023-02-12T20:48:59.435Z,55.10
2023-02-12T20:51:27.660Z,53.42
2023-02-12T20:53:55.554Z,54.58
2023-02-12T20:56:28.303Z,52.10
2023-02-12T20:59:00.282Z,56.08
2023-02-12T21:01:38.665Z,54.65
2023-02-12T21:04:08.396Z,50.28
2023-02-12T21:06:57.288Z,49.90
2023-02-12T21:09:26.298Z,47.90
2023-02-12T21:11:58.627Z,50.25
2023-02-12T21:14:28.686Z,47.40
2023-02-12T21:16:56.360Z,46.25
2023-02-12T21:19:24.131Z,45.20
2023-02-12T21:21:50.997Z,46.17
2023-02-12T21:24:22.073Z,45.83
2023-02-12T21:26:51.852Z,44.47
2023-02-12T21:29:19.309Z,40.42
2023-02-12T21:31:48.539Z,42.28
2023-02-12T21:34:21.058Z,40.90
2023-02-12T21:36:52.667Z,41.20
2023-02-12T21:39:25.429Z,37.45
2023-02-12T21:41:54.828Z,33.22
2023-02-12T21:44:22.804Z,34.38
2023-02-12T21:46:50.028Z,33.03
2023-02-12T21:49:24.762Z,31.98
2023-02-12T21:51:55.754Z,35.22
2023-02-12T21:54:23.152Z,33.50
2023-02-12T21:56:50.528Z,32.92
2023-02-12T21:59:20.894Z,31.60
2023-02-12T22:01:54.178Z,30.80
2023-02-12T22:04:23.647Z,30.17
2023-02-12T22:06:51.547Z,28.92
2023-02-12T22:09:20.734Z,25.73
2023-02-12T22:11:52.429Z,29.58
2023-02-12T22:14:22.669Z,29.77
2023-02-12T22:16:49.896Z,30.23
2023-02-12T22:21:51.960Z,26.35
2023-02-12T22:24:19.290Z,23.98
2023-02-12T22:26:46.154Z,26.25
2023-02-12T22:29:17.702Z,24.77
2023-02-12T22:31:48.129Z,25.05
2023-02-12T22:34:18.142Z,24.40
2023-02-12T22:36:47.522Z,21.75
2023-02-12T22:39:17.931Z,20.20
2023-02-12T22:41:45.136Z,23.00
2023-02-12T22:46:43.123Z,23.70
2023-02-12T22:49:10.507Z,22.70
2023-02-12T22:51:39.562Z,23.23
2023-02-12T22:54:10.943Z,25.35
2023-02-12T22:56:37.925Z,25.30
2023-02-12T22:59:04.708Z,19.88
2023-02-12T23:01:31.614Z,19.02
2023-02-12T23:03:58.732Z,17.13
2023-02-12T23:06:30.730Z,17.92
2023-02-12T23:09:03.050Z,17.40
2023-02-12T23:11:34.285Z,15.77
2023-02-12T23:14:03.526Z,16.95
2023-02-12T23:16:30.400Z,14.18
2023-02-12T23:19:03.767Z,12.77
2023-02-12T23:21:35.770Z,13.98
2023-02-12T23:24:02.482Z,13.77
2023-02-12T23:26:30.084Z,13.52
2023-02-12T23:28:57.677Z,12.25
2023-02-12T23:31:25.075Z,11.98
2023-02-12T23:33:52.030Z,14.70
2023-02-12T23:36:18.855Z,15.80
2023-02-12T23:38:45.702Z,13.27
2023-02-12T23:41:12.485Z,11.23
2023-02-12T23:43:39.348Z,13.82
2023-02-12T23:46:06.350Z,15.23
2023-02-12T23:48:33.194Z,16.08
2023-02-12T23:51:00.161Z,17.33
2023-02-12T23:53:27.108Z,19.77
2023-02-12T23:56:01.913Z,23.65
2023-02-12T23:58:28.737Z,38.15
